Latest Weather Observations for Ballina

IDN60801

Issued at 7:35 am EST Thursday 24 July 2014 (issued every 30 minutes, with the page automatically refreshed every 10 minutes)

About weather observations | Map of weather stations | Latest weather observations for NSW | Other Formats
Station Details ID: 058198 Name: BALLINA AIRPORT AWS Lat: -28.84 Lon: 153.56 Height: 1.3 m
Data from the previous 72 hours. | See also: Recent months at Ballina
Date/Time
EST
Temp
°C
App
Temp
°C
Dew
Point
Rel
Hum
%
Delta-T
°C
Wind Press
QNH
hPa
Press
MSL
hPa
Rain
since 9 am
mm
Dir
 
Spd
km/h
Gust
km/h
Spd
kts
Gust
kts
24/07:30am 11.2 11.5 11.0 99 0.1 WNW 0 0 0 0 1023.6 - 4.6
24/07:00am 10.4 10.5 10.2 99 0.1 WNW 0 0 0 0 1023.4 1023.4 4.6
24/06:30am 10.7 10.9 10.5 99 0.1 CALM 0 2 0 1 1023.1 - 4.6
24/06:00am 10.9 10.8 10.7 99 0.1 NNW 2 7 1 4 1022.8 1022.8 4.6
24/05:30am 10.4 10.5 10.2 99 0.1 CALM 0 0 0 0 1022.6 - 4.6
24/05:00am 9.7 9.6 9.6 99 0.0 CALM 0 0 0 0 1022.1 1022.1 4.6
24/04:30am 9.6 9.5 9.5 99 0.0 CALM 0 0 0 0 1021.8 - 4.6
24/04:00am 10.0 10.0 9.9 99 0.1 CALM 0 0 0 0 1021.9 1021.9 4.6
24/03:30am 9.7 9.6 9.6 99 0.0 CALM 0 0 0 0 1021.7 - 4.6
24/03:00am 9.6 9.5 9.5 99 0.0 CALM 0 0 0 0 1021.8 1021.8 4.6
24/02:30am 9.5 9.4 9.4 99 0.0 CALM 0 0 0 0 1021.9 - 4.6
24/02:00am 10.0 10.0 9.9 99 0.1 CALM 0 0 0 0 1022.1 1022.1 4.6
24/01:30am 9.1 8.9 9.0 99 0.0 CALM 0 0 0 0 1022.3 - 4.6
24/01:00am 9.3 9.1 9.2 99 0.0 CALM 0 0 0 0 1022.4 1022.4 4.6
24/12:30am 9.6 8.8 9.5 99 0.0 WNW 4 7 2 4 1022.5 - 4.6
24/12:29am 9.6 8.4 9.5 99 0.0 WNW 6 7 3 4 1022.5 - 4.6
24/12:25am 9.8 9.0 9.7 99 0.0 WNW 4 7 2 4 1022.5 - 4.6
24/12:00am 9.2 9.0 9.1 99 0.0 SW 0 0 0 0 1022.5 1022.5 4.6
 
Date/Time
EST
Temp
°C
App
Temp
°C
Dew
Point
Rel
Hum
%
Delta-T
°C
Wind Press
QNH
hPa
Press
MSL
hPa
Rain
since 9 am
mm
Dir
 
Spd
km/h
Gust
km/h
Spd
kts
Gust
kts
23/11:30pm 9.7 9.6 9.6 99 0.0 CALM 0 0 0 0 1022.8 - 4.6
23/11:00pm 9.8 9.8 9.7 99 0.0 CALM 0 0 0 0 1022.8 1022.8 4.6
23/10:30pm 9.8 9.8 9.7 99 0.0 CALM 0 0 0 0 1022.9 - 4.6
23/10:00pm 10.6 10.8 10.4 99 0.1 CALM 0 0 0 0 1022.9 1022.9 4.6
23/09:37pm 10.7 10.9 10.5 99 0.1 CALM 0 0 0 0 1022.6 - 4.6
23/09:30pm 11.1 11.0 10.9 99 0.1 WSW 2 6 1 3 1022.7 - 4.6
23/09:23pm 11.0 10.1 10.8 99 0.1 WSW 6 7 3 4 1022.8 - 4.6
23/09:00pm 10.6 10.0 10.3 98 0.2 WNW 4 7 2 4 1022.9 1022.9 4.6
23/08:30pm 10.5 9.8 10.2 98 0.2 N 4 6 2 3 1022.7 - 4.6
23/08:11pm 11.5 10.7 11.2 98 0.2 NNW 6 7 3 4 1022.8 - 4.6
23/08:00pm 11.2 11.4 10.7 97 0.3 CALM 0 7 0 4 1022.7 1022.7 4.6
23/07:30pm 11.5 11.8 10.9 96 0.3 CALM 0 0 0 0 1022.6 - 4.6
23/07:00pm 12.1 12.6 11.5 96 0.3 CALM 0 0 0 0 1022.6 1022.6 4.6
23/06:30pm 12.8 12.3 12.2 96 0.3 WNW 6 6 3 3 1022.6 - 4.6
23/06:19pm 13.2 13.3 12.6 96 0.3 WNW 4 7 2 4 1022.5 - 4.6
23/06:00pm 13.6 14.1 12.8 95 0.4 NNW 2 7 1 4 1022.5 1022.5 4.6
23/05:30pm 14.4 14.0 12.4 88 1.1 SSW 6 9 3 5 1022.2 - 4.6
23/05:00pm 14.7 13.7 12.2 85 1.4 SE 9 13 5 7 1021.4 1021.4 4.6
23/04:30pm 15.5 15.0 13.7 89 1.0 ESE 9 13 5 7 1021.6 - 4.6
23/04:25pm 15.5 15.0 13.7 89 1.0 E 9 13 5 7 1021.6 - 4.6
23/04:00pm 15.8 13.6 14.3 91 0.8 ESE 19 24 10 13 1021.6 1021.6 2.6
23/03:46pm 15.4 11.5 12.0 80 1.8 SE 24 32 13 17 1021.6 - 0.6
23/03:30pm 17.3 15.8 12.0 71 2.9 SE 11 15 6 8 1021.5 - 0.0
23/03:00pm 17.5 14.2 11.5 68 3.3 SSE 20 32 11 17 1021.2 1021.2 0.0
23/02:30pm 18.2 14.9 11.7 66 3.6 S 20 32 11 17 1021.2 - 0.0
23/02:00pm 18.2 14.8 11.3 64 3.7 S 20 28 11 15 1021.1 1021.1 0.0
23/01:30pm 18.0 14.4 11.8 67 3.4 S 22 33 12 18 1021.2 - 0.0
23/01:00pm 18.1 14.4 11.4 65 3.6 S 22 30 12 16 1021.3 1021.3 0.0
23/12:30pm 17.0 13.7 10.8 67 3.3 S 19 24 10 13 1021.9 - 0.0
23/12:00pm 17.8 14.9 11.1 65 3.6 SW 17 24 9 13 1022.3 1022.3 0.0
23/11:30am 17.5 14.3 11.3 67 3.4 SW 19 28 10 15 1023.0 - 0.0
23/11:00am 16.7 13.4 10.8 68 3.1 SW 19 24 10 13 1023.4 1023.4 0.0
23/10:30am 16.5 13.4 11.6 73 2.7 SW 19 28 10 15 1023.7 - 0.0
23/10:00am 15.8 12.5 11.0 73 2.5 WSW 19 24 10 13 1024.2 1024.2 0.0
23/09:30am 14.4 11.7 10.4 77 2.1 WSW 15 19 8 10 1024.3 - 0.0
23/09:00am 13.6 10.4 10.0 79 1.8 WSW 17 26 9 14 1024.0 1024.0 11.4
23/08:30am 13.7 10.5 9.9 78 2.0 WSW 17 24 9 13 1023.8 - 11.4
23/08:00am 12.2 9.6 9.2 82 1.5 W 13 19 7 10 1023.3 1023.3 11.4
23/07:30am 10.7 8.0 9.1 90 0.8 W 13 17 7 9 1023.3 - 11.4
23/07:00am 9.9 7.5 8.5 91 0.7 W 11 13 6 7 1022.9 1022.9 11.4
23/06:30am 10.2 7.5 9.0 92 0.6 W 13 15 7 8 1022.4 - 11.4
23/06:00am 10.1 7.8 9.0 93 0.5 W 11 13 6 7 1021.9 1021.9 11.4
23/05:30am 9.3 6.5 8.4 94 0.4 W 13 17 7 9 1021.7 - 11.4
23/05:00am 9.2 6.3 8.1 93 0.5 W 13 17 7 9 1021.2 1021.2 11.4
23/04:30am 9.8 7.0 8.7 93 0.5 WSW 13 15 7 8 1021.3 - 11.4
23/04:00am 9.7 6.9 8.6 93 0.5 WSW 13 15 7 8 1021.1 1021.1 11.4
23/03:30am 10.4 7.7 9.0 91 0.7 WSW 13 17 7 9 1021.2 - 11.4
23/03:00am 10.0 7.3 8.9 93 0.5 WSW 13 15 7 8 1021.3 1021.3 11.4
23/02:30am 10.0 7.4 9.4 96 0.3 W 13 15 7 8 1021.6 - 11.4
23/02:00am 9.6 6.9 9.0 96 0.3 W 13 15 7 8 1021.7 1021.7 11.4
23/01:30am 9.8 7.6 9.3 97 0.2 W 11 15 6 8 1021.8 - 11.4
23/01:00am 9.4 7.1 8.9 97 0.2 W 11 15 6 8 1021.7 1021.7 11.2
23/12:30am 10.4 8.7 9.9 97 0.3 W 9 11 5 6 1021.9 - 11.2
23/12:00am 10.2 7.7 9.7 97 0.2 W 13 15 7 8 1022.0 1022.0 11.2
 
Date/Time
EST
Temp
°C
App
Temp
°C
Dew
Point
Rel
Hum
%
Delta-T
°C
Wind Press
QNH
hPa
Press
MSL
hPa
Rain
since 9 am
mm
Dir
 
Spd
km/h
Gust
km/h
Spd
kts
Gust
kts
22/11:30pm 10.4 8.0 9.9 97 0.3 W 13 15 7 8 1022.1 - 11.2
22/11:00pm 11.3 9.1 10.7 96 0.3 W 13 17 7 9 1021.9 1021.9 11.2
22/10:30pm 11.7 10.3 10.8 94 0.5 WNW 9 13 5 7 1022.1 - 11.2
22/10:00pm 12.3 10.7 11.7 96 0.3 WNW 11 15 6 8 1022.3 1022.3 11.2
22/09:30pm 12.4 10.9 11.9 97 0.3 WSW 11 13 6 7 1022.5 - 11.2
22/09:15pm 12.4 9.7 11.8 96 0.3 WSW 17 22 9 12 1022.6 - 11.0
22/09:00pm 12.2 10.6 11.6 96 0.3 W 11 15 6 8 1022.3 1022.3 10.0
22/08:30pm 11.9 11.0 11.3 96 0.3 W 7 15 4 8 1022.3 - 9.6
22/08:00pm 11.7 10.3 10.9 95 0.4 NW 9 13 5 7 1022.2 1022.2 9.6
22/07:30pm 12.1 10.4 11.3 95 0.4 NNW 11 13 6 7 1022.4 - 9.6
22/07:00pm 12.2 10.6 11.4 95 0.4 NW 11 15 6 8 1022.2 1022.2 9.6
22/06:35pm 12.2 10.9 11.3 94 0.5 SW 9 15 5 8 1022.1 - 7.6
22/06:30pm 12.2 10.9 11.1 93 0.6 WSW 9 15 5 8 1022.2 - 7.4
22/06:13pm 12.1 10.4 10.0 87 1.1 SE 9 20 5 11 1022.0 - 6.0
22/06:09pm 12.3 5.1 9.3 82 1.5 S 37 61 20 33 1022.2 - 3.2
22/06:08pm 12.1 3.0 8.6 79 1.7 S 46 61 25 33 1022.1 - 1.6
22/06:07pm 12.7 6.7 8.6 76 2.0 SSW 30 61 16 33 1021.8 - 0.4
22/06:00pm 15.1 11.1 10.3 73 2.5 SW 22 43 12 23 1021.6 1021.6 0.0
22/05:30pm 15.3 14.3 11.1 76 2.2 SSE 7 13 4 7 1021.0 - 0.0
22/05:00pm 15.9 14.2 11.3 74 2.5 SE 11 15 6 8 1020.7 1020.7 0.0
22/04:30pm 16.9 15.1 12.0 73 2.7 SE 13 19 7 10 1020.2 - 0.0
22/04:00pm 17.4 14.6 11.4 68 3.2 SSE 17 24 9 13 1020.0 1020.0 0.0
22/03:30pm 17.8 15.8 11.4 66 3.5 SSE 13 19 7 10 1020.0 - 0.0
22/03:00pm 18.3 16.1 12.1 67 3.4 SE 15 19 8 10 1019.7 1019.7 0.0
22/02:30pm 18.4 15.9 12.4 68 3.3 SSE 17 20 9 11 1019.8 - 0.0
22/02:00pm 18.3 16.2 12.3 68 3.3 SSE 15 22 8 12 1019.9 1019.9 0.0
22/01:30pm 18.4 17.4 12.4 68 3.3 SSW 9 15 5 8 1020.0 - 0.0
22/01:00pm 18.5 16.7 12.0 66 3.6 S 13 19 7 10 1020.3 1020.3 0.0
22/12:30pm 17.7 15.4 11.9 69 3.2 SSW 15 20 8 11 1020.9 - 0.0
22/12:00pm 18.0 16.3 12.5 70 3.0 SW 13 20 7 11 1021.3 1021.3 0.0
22/11:30am 17.4 15.7 12.5 73 2.7 SSW 13 19 7 10 1021.9 - 0.0
22/11:00am 16.7 14.7 12.8 78 2.2 SSW 15 20 8 11 1022.4 1022.4 0.0
22/10:30am 16.2 14.4 12.2 77 2.2 SW 13 17 7 9 1022.7 - 0.0
22/10:00am 15.9 13.9 12.8 82 1.7 WSW 15 19 8 10 1023.1 1023.1 0.0
22/09:30am 15.2 13.2 12.7 85 1.4 WSW 15 17 8 9 1023.2 - 0.0
22/09:00am 14.5 13.2 12.5 88 1.1 W 11 15 6 8 1023.2 1023.2 0.6
22/08:30am 14.0 12.7 12.4 90 0.9 W 11 13 6 7 1022.9 - 0.6
22/08:00am 13.1 11.6 11.8 92 0.7 W 11 15 6 8 1022.6 1022.6 0.6
22/07:30am 12.5 11.3 11.7 95 0.4 W 9 11 5 6 1022.6 - 0.6
22/07:00am 12.0 10.7 11.4 96 0.3 W 9 9 5 5 1022.4 1022.4 0.6
22/06:30am 11.4 10.0 10.9 97 0.3 W 9 11 5 6 1022.1 - 0.6
22/06:00am 11.0 9.5 10.5 97 0.3 W 9 11 5 6 1021.8 1021.8 0.6
22/05:30am 11.3 9.9 10.8 97 0.3 WNW 9 13 5 7 1021.5 - 0.6
22/05:00am 11.5 10.1 11.0 97 0.3 W 9 11 5 6 1021.6 1021.6 0.6
22/04:30am 12.1 11.2 11.5 96 0.3 SW 7 11 4 6 1021.5 - 0.6
22/04:00am 12.0 10.7 11.4 96 0.3 W 9 13 5 7 1021.4 1021.4 0.6
22/03:30am 12.2 10.4 12.0 99 0.1 WNW 13 17 7 9 1021.6 - 0.6
22/03:18am 11.8 9.8 11.6 99 0.1 W 13 17 7 9 1021.7 - 0.6
22/03:00am 11.1 10.0 10.8 98 0.2 W 7 9 4 5 1021.8 1021.8 0.6
22/02:47am 11.0 9.9 10.7 98 0.2 WSW 7 11 4 6 1021.7 - 0.6
22/02:30am 11.8 10.6 11.5 98 0.2 SW 9 11 5 6 1021.5 - 0.6
22/02:00am 11.8 10.9 11.5 98 0.2 W 7 9 4 5 1021.8 1021.8 0.4
22/01:30am 11.9 10.3 11.6 98 0.2 W 11 15 6 8 1022.1 - 0.4
22/01:00am 11.2 9.4 10.7 97 0.3 W 11 13 6 7 1022.2 1022.2 0.4
22/12:30am 12.1 11.0 11.8 98 0.2 W 9 9 5 5 1022.3 - 0.4
22/12:00am 12.2 10.4 12.0 99 0.1 W 13 15 7 8 1022.3 1022.3 0.4
 
Date/Time
EST
Temp
°C
App
Temp
°C
Dew
Point
Rel
Hum
%
Delta-T
°C
Wind Press
QNH
hPa
Press
MSL
hPa
Rain
since 9 am
mm
Dir
 
Spd
km/h
Gust
km/h
Spd
kts
Gust
kts
21/11:30pm 11.5 10.6 11.2 98 0.2 W 7 9 4 5 1022.4 - 0.4
21/11:02pm 11.9 11.3 11.6 98 0.2 W 6 6 3 3 1022.8 - 0.4
21/11:00pm 11.9 11.3 11.6 98 0.2 W 6 6 3 3 1022.8 1022.8 0.4
21/10:51pm 11.7 11.0 11.4 98 0.2 W 6 7 3 4 1022.8 - 0.4
21/10:30pm 12.4 11.7 12.1 98 0.2 W 7 9 4 5 1022.8 - 0.4
21/10:00pm 12.3 11.5 11.8 97 0.3 W 7 9 4 5 1022.9 1022.9 0.4
21/09:30pm 12.7 13.4 12.2 97 0.3 CALM 0 0 0 0 1023.0 - 0.4
21/09:00pm 12.4 11.6 11.8 96 0.3 W 7 7 4 4 1023.1 1023.1 0.4
21/08:30pm 12.8 12.1 12.0 95 0.4 W 7 9 4 5 1023.0 - 0.4
21/08:00pm 13.8 13.0 12.9 94 0.5 WSW 9 11 5 6 1022.9 1022.9 0.4
21/07:30pm 14.2 13.5 13.1 93 0.6 WSW 9 13 5 7 1023.0 - 0.4
21/07:00pm 14.4 13.4 13.3 93 0.6 WSW 11 13 6 7 1022.9 1022.9 0.0
21/06:30pm 13.9 14.4 12.8 93 0.6 S 2 7 1 4 1022.9 - 0.0
21/06:00pm 14.7 15.2 12.7 88 1.1 SSE 2 7 1 4 1022.6 1022.6 0.0
21/05:30pm 15.0 13.8 12.7 86 1.3 SSE 11 17 6 9 1022.4 - 0.0
21/05:00pm 15.0 12.7 12.9 87 1.2 SSE 17 22 9 12 1022.3 1022.3 0.0
21/04:30pm 16.0 13.8 13.3 84 1.5 SSE 17 22 9 12 1022.0 - 0.0
21/04:00pm 17.2 15.6 12.9 76 2.4 SSW 13 22 7 12 1021.6 1021.6 0.0
21/03:30pm 17.3 14.6 12.8 75 2.5 S 19 26 10 14 1021.5 - 0.0
21/03:00pm 17.2 14.4 12.5 74 2.6 S 19 26 10 14 1021.3 1021.3 0.0
21/02:30pm 18.0 15.4 13.1 73 2.8 S 19 24 10 13 1021.3 - 0.0
21/02:00pm 18.2 16.0 13.3 73 2.8 S 17 24 9 13 1021.4 1021.4 0.0
21/01:30pm 17.2 14.4 12.5 74 2.6 S 19 24 10 13 1021.4 - 0.0
21/01:00pm 18.3 16.3 11.6 65 3.7 SSW 13 20 7 11 1021.7 1021.7 0.0
21/12:30pm 17.5 15.4 11.1 66 3.5 SSW 13 20 7 11 1022.1 - 0.0
21/12:00pm 17.7 15.9 12.2 70 3.0 S 13 20 7 11 1022.9 1022.9 0.0
21/11:55am 17.7 15.6 12.4 71 2.9 S 15 20 8 11 1022.9 - 0.0
21/11:37am 17.6 15.5 13.5 77 2.3 SW 17 24 9 13 1023.1 - 0.0
21/11:30am 17.9 15.9 13.8 77 2.3 SW 17 22 9 12 1023.2 - 0.0
21/11:19am 17.6 15.5 13.7 78 2.2 SW 17 22 9 12 1023.4 - 0.0
21/11:00am 16.8 14.2 13.7 82 1.7 SW 20 28 11 15 1023.7 1023.7 0.0
21/10:30am 15.8 13.6 13.3 85 1.4 SW 17 24 9 13 1024.1 - 0.0
21/10:10am 16.1 14.2 14.1 88 1.1 SW 17 24 9 13 1024.3 - 0.0
21/10:00am 15.5 13.4 13.7 89 1.0 SW 17 26 9 14 1024.3 1024.3 0.0
21/09:30am 15.1 13.1 13.8 92 0.7 WSW 17 22 9 12 1024.3 - 0.0
21/09:00am 14.4 12.8 13.8 96 0.3 W 15 17 8 9 1024.2 1024.2 26.0
21/08:30am 13.5 11.3 13.2 98 0.2 W 17 20 9 11 1024.1 - 25.8
21/08:20am 13.4 11.5 13.1 98 0.2 W 15 17 8 9 1024.1 - 25.6
21/08:00am 13.1 10.3 12.6 97 0.3 WSW 19 24 10 13 1024.2 1024.2 25.2
21/07:57am 13.1 10.3 12.6 97 0.3 WSW 19 24 10 13 1024.1 - 25.2
21/07:39am 13.1 11.8 12.6 97 0.3 W 11 13 6 7 1023.9 - 23.2
21/07:37am 13.1 11.4 12.6 97 0.3 W 13 15 7 8 1023.9 - 22.6

Other Formats:

Comma delimited format used in spreadsheet applications
http://www.bom.gov.au/fwo/IDN60801/IDN60801.94596.axf

JavaScript Object Notation format (JSON) in row-major order
http://www.bom.gov.au/fwo/IDN60801/IDN60801.94596.json